Time;durP1;ratioP1;P1;durP2;ratioP2;P2;SDS_P1;SDS_P2;PMS_P1;PMS_P2;Temp;Humidity;BMP_temperature;BMP_pressure;BME280_temperature;BME280_humidity;BME280_pressure;Samples;Min_cycle;Max_cycle;Signal;HPM_P1;HPM_P2
2022/04/17 00:01:28;;;;;;;9.23;6.60;;;;;;;;;;6186506;23;20017;-90
2022/04/17 00:03:54;;;;;;;12.50;7.07;;;;;;;;;;6186219;23;20015;-92
2022/04/17 00:06:20;;;;;;;10.77;6.85;;;;;;;;;;6186821;23;20069;-91
2022/04/17 00:08:49;;;;;;;10.55;6.80;;;;;;;;;;6188343;23;20024;-90
2022/04/17 00:11:19;;;;;;;9.32;6.78;;;;;;;;;;6187088;23;20020;-91
2022/04/17 00:13:45;;;;;;;10.55;6.03;;;;;;;;;;6187559;23;20092;-92
2022/04/17 00:16:14;;;;;;;13.32;7.00;;;;;;;;;;6188399;23;20017;-91
2022/04/17 00:18:40;;;;;;;9.68;6.45;;;;;;;;;;6164613;23;20013;-91
2022/04/17 00:21:09;;;;;;;10.52;6.97;;;;;;;;;;6165378;23;20446;-91
2022/04/17 00:23:35;;;;;;;9.38;6.22;;;;;;;;;;6186284;23;20187;-91
2022/04/17 00:26:01;;;;;;;11.73;6.60;;;;;;;;;;6184871;23;20017;-91
2022/04/17 00:28:27;;;;;;;10.07;6.72;;;;;;;;;;6187476;23;20064;-91
2022/04/17 00:30:54;;;;;;;8.70;5.85;;;;;;;;;;6185649;23;20021;-91
2022/04/17 00:33:23;;;;;;;9.82;6.80;;;;;;;;;;6185176;23;20012;-91
2022/04/17 00:35:49;;;;;;;11.13;6.35;;;;;;;;;;6160347;23;20450;-91
2022/04/17 00:38:17;;;;;;;8.95;5.93;;;;;;;;;;6184978;23;20071;-92
2022/04/17 00:40:43;;;;;;;11.20;6.53;;;;;;;;;;6185243;23;20501;-91
2022/04/17 00:43:19;;;;;;;11.73;7.00;;;;;;;;;;6185008;23;20013;-92
2022/04/17 00:45:45;;;;;;;10.13;6.40;;;;;;;;;;6184985;23;20450;-91
2022/04/17 00:48:13;;;;;;;9.40;6.00;;;;;;;;;;6184689;23;20017;-90
2022/04/17 00:50:40;;;;;;;8.48;5.88;;;;;;;;;;6160252;23;20063;-90
2022/04/17 00:53:06;;;;;;;7.78;5.63;;;;;;;;;;6184887;23;20009;-91
2022/04/17 00:55:32;;;;;;;8.98;5.90;;;;;;;;;;6184948;23;20013;-91
2022/04/17 00:57:59;;;;;;;8.15;5.68;;;;;;;;;;6160131;23;20343;-91
2022/04/17 01:00:25;;;;;;;9.18;5.78;;;;;;;;;;6160018;23;20020;-91
2022/04/17 01:02:51;;;;;;;10.00;6.28;;;;;;;;;;6184533;23;20009;-92
2022/04/17 01:05:18;;;;;;;8.90;5.75;;;;;;;;;;6160399;23;20064;-92
2022/04/17 01:07:45;;;;;;;8.82;5.57;;;;;;;;;;6185158;23;20020;-91
2022/04/17 01:10:10;;;;;;;9.60;6.20;;;;;;;;;;6160186;23;20020;-92
2022/04/17 01:12:37;;;;;;;8.60;5.45;;;;;;;;;;6184813;23;20013;-91
2022/04/17 01:15:03;;;;;;;9.45;6.18;;;;;;;;;;6160479;23;20013;-92
2022/04/17 01:17:29;;;;;;;10.15;6.05;;;;;;;;;;6160510;23;20021;-92
2022/04/17 01:19:55;;;;;;;8.93;5.90;;;;;;;;;;6185537;23;20098;-91
2022/04/17 01:22:21;;;;;;;10.70;6.07;;;;;;;;;;6160330;23;20013;-91
2022/04/17 01:27:32;;;;;;;9.35;6.75;;;;;;;;;;6184683;23;20413;-91
2022/04/17 01:29:58;;;;;;;8.98;6.03;;;;;;;;;;6184577;23;20016;-90
2022/04/17 01:32:24;;;;;;;9.73;6.57;;;;;;;;;;6184977;23;20335;-90
2022/04/17 01:34:52;;;;;;;9.45;6.65;;;;;;;;;;6160031;23;20130;-90
2022/04/17 01:37:18;;;;;;;10.32;6.88;;;;;;;;;;6159867;23;20020;-91
2022/04/17 01:39:44;;;;;;;10.45;6.65;;;;;;;;;;6159816;23;20088;-91
2022/04/17 01:42:11;;;;;;;8.68;5.95;;;;;;;;;;6185004;23;20027;-92
2022/04/17 01:44:37;;;;;;;9.13;5.82;;;;;;;;;;6160085;23;20008;-91
2022/04/17 01:47:03;;;;;;;8.90;6.28;;;;;;;;;;6160298;23;20060;-91
2022/04/17 01:49:29;;;;;;;9.75;6.30;;;;;;;;;;6159633;23;20469;-90
2022/04/17 01:51:56;;;;;;;10.15;6.25;;;;;;;;;;6184729;23;20048;-90
2022/04/17 01:54:23;;;;;;;9.10;6.60;;;;;;;;;;6184784;23;20020;-92
2022/04/17 01:56:49;;;;;;;9.80;6.38;;;;;;;;;;6184635;23;20017;-92
2022/04/17 01:59:19;;;;;;;10.10;6.68;;;;;;;;;;6184696;23;20009;-91
2022/04/17 02:01:45;;;;;;;9.65;6.55;;;;;;;;;;6184676;23;20088;-91
2022/04/17 02:04:11;;;;;;;10.68;6.95;;;;;;;;;;6183783;23;20020;-91
2022/04/17 02:06:45;;;;;;;12.02;7.32;;;;;;;;;;6184680;23;20016;-90
2022/04/17 02:09:11;;;;;;;10.13;6.75;;;;;;;;;;6159656;23;20019;-91
2022/04/17 02:11:38;;;;;;;10.13;6.32;;;;;;;;;;6184952;23;20044;-91
2022/04/17 02:14:05;;;;;;;9.82;6.55;;;;;;;;;;6184468;23;20323;-91
2022/04/17 02:16:31;;;;;;;10.77;7.30;;;;;;;;;;6184656;23;20013;-90
2022/04/17 02:18:58;;;;;;;10.40;7.20;;;;;;;;;;6184263;23;20040;-90
2022/04/17 02:21:24;;;;;;;13.23;7.22;;;;;;;;;;6159914;23;20009;-91
2022/04/17 02:23:51;;;;;;;11.13;7.57;;;;;;;;;;6159811;23;20338;-90
2022/04/17 02:26:17;;;;;;;12.73;7.72;;;;;;;;;;6159946;23;20017;-90
2022/04/17 02:28:43;;;;;;;12.30;6.70;;;;;;;;;;6159738;23;20013;-91
2022/04/17 02:31:12;;;;;;;10.85;7.53;;;;;;;;;;6184204;23;20053;-91
2022/04/17 02:33:39;;;;;;;9.95;6.38;;;;;;;;;;6184717;23;20399;-91
2022/04/17 02:36:05;;;;;;;10.05;7.03;;;;;;;;;;6159919;23;20343;-90
2022/04/17 02:38:32;;;;;;;11.05;7.05;;;;;;;;;;6159435;23;20322;-91
2022/04/17 02:41:00;;;;;;;11.20;7.82;;;;;;;;;;6184469;23;20041;-91
2022/04/17 02:43:28;;;;;;;11.68;6.85;;;;;;;;;;6159496;23;20275;-91
2022/04/17 02:45:54;;;;;;;12.23;6.80;;;;;;;;;;6184348;23;20129;-91
2022/04/17 02:48:21;;;;;;;12.70;7.05;;;;;;;;;;6184264;23;20060;-91
2022/04/17 02:50:48;;;;;;;11.07;7.50;;;;;;;;;;6184155;23;20116;-91
2022/04/17 02:53:14;;;;;;;12.82;7.72;;;;;;;;;;6184604;23;20036;-91
2022/04/17 02:55:43;;;;;;;13.15;8.25;;;;;;;;;;6184343;23;20017;-90
2022/04/17 02:58:10;;;;;;;11.95;7.55;;;;;;;;;;6184455;23;20016;-91
2022/04/17 03:05:36;;;;;;;11.10;7.18;;;;;;;;;;6183998;23;20072;-91
2022/04/17 03:06:10;;;;;;;12.48;7.68;;;;;;;;;;6185157;23;20021;-91
2022/04/17 03:08:38;;;;;;;12.02;7.32;;;;;;;;;;6159787;23;20063;-91
2022/04/17 03:11:03;;;;;;;11.40;7.18;;;;;;;;;;6159405;23;20013;-91
2022/04/17 03:13:29;;;;;;;16.00;7.82;;;;;;;;;;6184081;23;20035;-92
2022/04/17 03:15:55;;;;;;;11.07;7.93;;;;;;;;;;6185996;23;20048;-92
2022/04/17 03:18:21;;;;;;;11.10;8.07;;;;;;;;;;6186399;23;20009;-91
2022/04/17 03:20:47;;;;;;;11.95;8.30;;;;;;;;;;6186168;23;20013;-91
2022/04/17 03:23:14;;;;;;;12.93;7.88;;;;;;;;;;6161476;23;20331;-91
2022/04/17 03:25:40;;;;;;;12.75;7.38;;;;;;;;;;6161292;23;20078;-91
2022/04/17 03:28:06;;;;;;;11.63;7.72;;;;;;;;;;6161175;23;20013;-91
2022/04/17 03:30:32;;;;;;;13.52;8.60;;;;;;;;;;6185414;23;20492;-91
2022/04/17 03:33:00;;;;;;;10.52;7.60;;;;;;;;;;6186164;23;20021;-91
2022/04/17 03:35:26;;;;;;;12.27;8.02;;;;;;;;;;6161208;23;20017;-91
2022/04/17 03:37:53;;;;;;;10.23;7.50;;;;;;;;;;6137242;23;20062;-92
2022/04/17 03:40:19;;;;;;;11.65;8.15;;;;;;;;;;6185967;23;20017;-91
2022/04/17 03:42:45;;;;;;;11.85;7.93;;;;;;;;;;6185877;23;20013;-90
2022/04/17 03:45:14;;;;;;;11.55;8.00;;;;;;;;;;6160947;23;20052;-91
2022/04/17 03:47:43;;;;;;;11.52;7.50;;;;;;;;;;6161046;23;20109;-90
2022/04/17 03:50:12;;;;;;;13.15;8.27;;;;;;;;;;6160550;23;20020;-91
2022/04/17 03:52:42;;;;;;;10.98;7.57;;;;;;;;;;6160949;23;20021;-91
2022/04/17 03:55:11;;;;;;;11.85;8.40;;;;;;;;;;6186270;23;20052;-91
2022/04/17 03:57:40;;;;;;;12.10;7.60;;;;;;;;;;6186126;23;20020;-90
2022/04/17 04:00:07;;;;;;;11.27;7.32;;;;;;;;;;6185596;23;20442;-91
2022/04/17 04:02:35;;;;;;;12.52;7.80;;;;;;;;;;6185829;23;20013;-91
2022/04/17 04:05:01;;;;;;;12.80;8.88;;;;;;;;;;6160778;23;20013;-90
2022/04/17 04:07:28;;;;;;;12.35;8.57;;;;;;;;;;6160867;23;20343;-90
2022/04/17 04:09:54;;;;;;;13.80;8.48;;;;;;;;;;6185708;23;20419;-90
2022/04/17 04:12:20;;;;;;;13.45;8.82;;;;;;;;;;6185899;23;20023;-90
2022/04/17 04:14:49;;;;;;;13.00;8.65;;;;;;;;;;6185265;23;20021;-91
2022/04/17 04:17:18;;;;;;;14.52;8.57;;;;;;;;;;6185494;23;20013;-92
2022/04/17 04:19:44;;;;;;;13.35;9.02;;;;;;;;;;6186146;23;20020;-91
2022/04/17 04:22:12;;;;;;;12.68;9.30;;;;;;;;;;6185372;23;20017;-91
2022/04/17 04:24:39;;;;;;;11.75;8.25;;;;;;;;;;6185581;23;20064;-91
2022/04/17 04:29:50;;;;;;;11.35;8.43;;;;;;;;;;6188492;23;20016;-91
2022/04/17 04:32:19;;;;;;;13.05;9.13;;;;;;;;;;6162859;23;20071;-91
2022/04/17 04:34:46;;;;;;;13.93;9.07;;;;;;;;;;6186106;23;20016;-91
2022/04/17 04:37:12;;;;;;;13.43;8.93;;;;;;;;;;6185943;23;20024;-91
2022/04/17 04:39:40;;;;;;;13.55;8.85;;;;;;;;;;6185315;23;20104;-91
2022/04/17 04:42:07;;;;;;;14.77;8.73;;;;;;;;;;6185402;23;20013;-91
2022/04/17 04:44:33;;;;;;;15.43;9.48;;;;;;;;;;6160597;23;20013;-92
2022/04/17 04:46:59;;;;;;;12.82;8.63;;;;;;;;;;6185221;23;20020;-92
2022/04/17 04:49:31;;;;;;;14.02;8.93;;;;;;;;;;6160778;23;20064;-92
2022/04/17 04:52:03;;;;;;;14.27;9.60;;;;;;;;;;6185210;23;20443;-91
2022/04/17 04:54:29;;;;;;;13.98;9.93;;;;;;;;;;6185114;23;20017;-91
2022/04/17 04:56:58;;;;;;;12.95;9.20;;;;;;;;;;6185153;23;20013;-91
2022/04/17 04:59:24;;;;;;;13.10;9.05;;;;;;;;;;6160420;23;20442;-91
2022/04/17 05:01:51;;;;;;;14.00;9.38;;;;;;;;;;6159743;23;20009;-91
2022/04/17 05:04:18;;;;;;;14.85;9.38;;;;;;;;;;6185331;23;20012;-91
2022/04/17 05:06:45;;;;;;;15.13;9.63;;;;;;;;;;6184901;23;20096;-91
2022/04/17 05:09:11;;;;;;;14.07;9.73;;;;;;;;;;6160199;23;20016;-92
2022/04/17 05:11:40;;;;;;;14.35;9.40;;;;;;;;;;6184593;23;20013;-91
2022/04/17 05:14:08;;;;;;;14.45;9.57;;;;;;;;;;6185004;23;20013;-92
2022/04/17 05:16:35;;;;;;;13.60;9.68;;;;;;;;;;6159919;23;20017;-92
2022/04/17 05:19:24;;;;;;;13.43;9.40;;;;;;;;;;6160460;23;20045;-91
2022/04/17 05:21:53;;;;;;;14.45;9.95;;;;;;;;;;6184995;23;20013;-92
2022/04/17 05:24:19;;;;;;;13.55;10.18;;;;;;;;;;6185433;23;20088;-92
2022/04/17 05:26:45;;;;;;;14.63;9.70;;;;;;;;;;6161738;23;20120;-91
2022/04/17 05:29:11;;;;;;;14.50;9.65;;;;;;;;;;6160368;23;20044;-93
2022/04/17 05:31:37;;;;;;;15.45;10.75;;;;;;;;;;6159849;23;20021;-92
2022/04/17 05:34:06;;;;;;;16.10;10.68;;;;;;;;;;6160198;23;20067;-91
2022/04/17 05:36:33;;;;;;;15.95;11.15;;;;;;;;;;6159864;23;20338;-91
2022/04/17 05:39:01;;;;;;;16.15;10.75;;;;;;;;;;6184825;23;20021;-91
2022/04/17 05:41:29;;;;;;;15.32;10.93;;;;;;;;;;6159819;23;20020;-90
2022/04/17 05:43:57;;;;;;;17.60;12.60;;;;;;;;;;6184963;23;20017;-91
2022/04/17 05:46:23;;;;;;;17.60;12.75;;;;;;;;;;6184773;23;20036;-91
2022/04/17 05:48:49;;;;;;;18.85;13.25;;;;;;;;;;6185700;23;20039;-92
2022/04/17 05:51:15;;;;;;;20.88;14.90;;;;;;;;;;6160210;23;20013;-91
2022/04/17 05:53:41;;;;;;;25.17;16.55;;;;;;;;;;6160284;23;20021;-91
2022/04/17 05:56:10;;;;;;;25.88;18.10;;;;;;;;;;6159896;23;20017;-91
2022/04/17 05:58:36;;;;;;;24.88;17.85;;;;;;;;;;6185248;23;20013;-91
2022/04/17 06:01:05;;;;;;;24.50;17.60;;;;;;;;;;6160051;23;20015;-92
2022/04/17 06:03:31;;;;;;;25.08;18.15;;;;;;;;;;6185129;23;20047;-91
2022/04/17 06:05:58;;;;;;;24.02;17.98;;;;;;;;;;6159955;23;20017;-90
2022/04/17 06:08:24;;;;;;;29.73;18.30;;;;;;;;;;6184989;23;20013;-90
2022/04/17 06:10:50;;;;;;;22.38;17.75;;;;;;;;;;6159749;23;20017;-90
2022/04/17 06:13:16;;;;;;;24.67;18.02;;;;;;;;;;6184456;23;20387;-90
2022/04/17 06:15:42;;;;;;;23.95;17.17;;;;;;;;;;6159136;23;20415;-91
2022/04/17 06:18:09;;;;;;;23.95;16.40;;;;;;;;;;6160128;23;20047;-91
2022/04/17 06:20:35;;;;;;;22.20;15.55;;;;;;;;;;6184986;23;20013;-91
2022/04/17 06:23:01;;;;;;;20.60;16.02;;;;;;;;;;6184553;23;20091;-91
2022/04/17 06:25:29;;;;;;;22.77;15.75;;;;;;;;;;6159804;23;20320;-90
2022/04/17 06:27:57;;;;;;;24.48;14.90;;;;;;;;;;6190416;23;20316;-90
2022/04/17 06:30:23;;;;;;;25.10;16.15;;;;;;;;;;6162832;23;20075;-90
2022/04/17 06:32:50;;;;;;;20.58;15.13;;;;;;;;;;6163873;23;20092;-92
2022/04/17 06:35:16;;;;;;;23.13;15.15;;;;;;;;;;6188495;23;20010;-91
2022/04/17 06:37:53;;;;;;;18.52;14.73;;;;;;;;;;6185216;23;20017;-90
2022/04/17 06:40:23;;;;;;;23.15;15.90;;;;;;;;;;6160911;23;20276;-91
2022/04/17 06:42:54;;;;;;;23.23;15.30;;;;;;;;;;6185308;23;20013;-93
2022/04/17 06:45:21;;;;;;;22.80;15.10;;;;;;;;;;6186202;23;20061;-91
2022/04/17 06:47:47;;;;;;;21.58;15.80;;;;;;;;;;6160399;23;20043;-91
2022/04/17 06:50:16;;;;;;;19.85;14.77;;;;;;;;;;6162104;23;20013;-91
2022/04/17 06:52:42;;;;;;;21.55;15.55;;;;;;;;;;6186680;23;20016;-90
2022/04/17 06:55:08;;;;;;;19.38;14.50;;;;;;;;;;6186695;23;20067;-91
2022/04/17 06:57:35;;;;;;;19.25;14.25;;;;;;;;;;6186390;23;20017;-92
2022/04/17 07:00:05;;;;;;;20.38;15.10;;;;;;;;;;6186498;23;20013;-91
2022/04/17 07:02:31;;;;;;;18.05;14.52;;;;;;;;;;6186351;23;20063;-90
2022/04/17 07:04:57;;;;;;;20.02;14.32;;;;;;;;;;6185991;23;20092;-91
2022/04/17 07:07:23;;;;;;;17.98;12.82;;;;;;;;;;6186194;23;20393;-91
2022/04/17 07:09:49;;;;;;;17.00;12.43;;;;;;;;;;6185904;23;20017;-91
2022/04/17 07:12:16;;;;;;;17.60;11.63;;;;;;;;;;6185777;23;20021;-92
2022/04/17 07:14:42;;;;;;;19.27;12.32;;;;;;;;;;6185877;23;20044;-91
2022/04/17 07:17:08;;;;;;;18.40;11.50;;;;;;;;;;6161016;23;20020;-91
2022/04/17 07:19:34;;;;;;;15.57;11.27;;;;;;;;;;6186304;23;20009;-92
2022/04/17 07:22:00;;;;;;;16.67;12.35;;;;;;;;;;6185807;23;20009;-92
2022/04/17 07:24:26;;;;;;;15.48;12.00;;;;;;;;;;6161263;23;20013;-93
2022/04/17 07:26:56;;;;;;;16.05;12.05;;;;;;;;;;6185694;23;20021;-92
2022/04/17 07:29:23;;;;;;;17.15;11.43;;;;;;;;;;6185793;23;20013;-91
2022/04/17 07:31:53;;;;;;;16.90;11.32;;;;;;;;;;6160504;23;20079;-92
2022/04/17 07:34:19;;;;;;;16.92;12.00;;;;;;;;;;6185730;23;20462;-92
2022/04/17 07:36:47;;;;;;;16.65;12.35;;;;;;;;;;6160214;23;20013;-91
2022/04/17 07:39:16;;;;;;;16.67;12.35;;;;;;;;;;6160480;23;20045;-91
2022/04/17 07:41:42;;;;;;;23.67;16.95;;;;;;;;;;6160137;23;20009;-91
2022/04/17 07:44:11;;;;;;;38.13;30.52;;;;;;;;;;6186025;23;20103;-93
2022/04/17 07:46:40;;;;;;;24.48;18.13;;;;;;;;;;6185608;23;20337;-91
2022/04/17 07:49:06;;;;;;;18.70;13.77;;;;;;;;;;6160946;23;20023;-91
2022/04/17 07:51:35;;;;;;;14.93;10.88;;;;;;;;;;6185911;23;20023;-92
2022/04/17 07:54:01;;;;;;;14.75;11.00;;;;;;;;;;6186173;23;20017;-91
2022/04/17 07:56:28;;;;;;;14.10;9.85;;;;;;;;;;6161108;23;20397;-90
2022/04/17 07:58:54;;;;;;;12.13;9.27;;;;;;;;;;6188225;23;20016;-91
2022/04/17 08:01:21;;;;;;;13.55;9.23;;;;;;;;;;6187153;23;20016;-91
2022/04/17 08:03:47;;;;;;;15.18;9.05;;;;;;;;;;6185831;23;20024;-91
2022/04/17 08:06:15;;;;;;;13.80;9.30;;;;;;;;;;6160781;23;20016;-92
2022/04/17 08:08:42;;;;;;;12.13;8.73;;;;;;;;;;6160487;23;20128;-91
2022/04/17 08:11:09;;;;;;;13.98;9.50;;;;;;;;;;6185338;23;20013;-91
2022/04/17 08:13:35;;;;;;;12.70;8.88;;;;;;;;;;6188804;23;20017;-93
2022/04/17 08:16:05;;;;;;;12.07;9.00;;;;;;;;;;6187537;23;20108;-92
2022/04/17 08:18:34;;;;;;;11.73;7.85;;;;;;;;;;6160524;23;20017;-91
2022/04/17 08:21:00;;;;;;;11.85;7.93;;;;;;;;;;6185565;23;20013;-90
2022/04/17 08:23:27;;;;;;;11.52;7.78;;;;;;;;;;6159976;23;20086;-91
2022/04/17 08:25:53;;;;;;;10.55;8.05;;;;;;;;;;6185278;23;20139;-90
2022/04/17 08:28:19;;;;;;;12.00;7.78;;;;;;;;;;6161192;23;20016;-90
2022/04/17 08:30:45;;;;;;;11.73;7.90;;;;;;;;;;6186937;23;20017;-91
2022/04/17 08:33:11;;;;;;;11.75;7.97;;;;;;;;;;6185985;23;20021;-90
2022/04/17 08:35:37;;;;;;;11.48;8.07;;;;;;;;;;6160163;23;20101;-91
2022/04/17 08:38:03;;;;;;;11.30;7.80;;;;;;;;;;6185116;23;20013;-89
2022/04/17 08:40:30;;;;;;;12.63;7.72;;;;;;;;;;6160351;23;20013;-90
2022/04/17 08:42:56;;;;;;;13.25;6.97;;;;;;;;;;6184523;23;20015;-89
2022/04/17 08:45:23;;;;;;;11.10;7.68;;;;;;;;;;6184845;23;20020;-91
2022/04/17 08:47:50;;;;;;;10.90;6.70;;;;;;;;;;6184869;23;20099;-90
2022/04/17 08:50:17;;;;;;;10.63;7.60;;;;;;;;;;6185084;23;20096;-91
2022/04/17 08:52:47;;;;;;;12.23;7.18;;;;;;;;;;6160157;23;20044;-91
2022/04/17 08:55:14;;;;;;;10.70;7.18;;;;;;;;;;6185002;23;20009;-90
2022/04/17 08:57:40;;;;;;;10.27;7.15;;;;;;;;;;6184571;23;20032;-91
2022/04/17 09:00:08;;;;;;;9.07;5.93;;;;;;;;;;6159806;23;20036;-91
2022/04/17 09:02:35;;;;;;;9.10;5.97;;;;;;;;;;6159715;23;20009;-91
2022/04/17 09:05:05;;;;;;;9.43;6.13;;;;;;;;;;6184557;23;20013;-91
2022/04/17 09:07:40;;;;;;;8.73;5.75;;;;;;;;;;6184540;23;20017;-91
2022/04/17 09:10:07;;;;;;;8.68;5.95;;;;;;;;;;6184910;23;20020;-90
2022/04/17 09:12:33;;;;;;;10.63;5.88;;;;;;;;;;6184286;23;20048;-91
2022/04/17 09:14:59;;;;;;;10.85;5.72;;;;;;;;;;6184527;23;20017;-91
2022/04/17 09:17:32;;;;;;;10.60;5.63;;;;;;;;;;6184074;23;20104;-90
2022/04/17 09:19:58;;;;;;;9.65;5.72;;;;;;;;;;6159569;23;20013;-90
2022/04/17 09:22:25;;;;;;;10.40;6.18;;;;;;;;;;6184393;23;20402;-89
2022/04/17 09:24:52;;;;;;;9.10;6.18;;;;;;;;;;6159669;23;20439;-92
2022/04/17 09:27:18;;;;;;;8.25;6.15;;;;;;;;;;6159799;23;20088;-90
2022/04/17 09:29:44;;;;;;;8.43;6.05;;;;;;;;;;6159659;23;20017;-90
2022/04/17 09:32:11;;;;;;;8.88;5.53;;;;;;;;;;6184345;23;20052;-91
2022/04/17 09:34:43;;;;;;;8.10;5.50;;;;;;;;;;6184283;23;20013;-92
2022/04/17 09:37:13;;;;;;;6.57;4.85;;;;;;;;;;6159577;23;20021;-90
2022/04/17 09:39:40;;;;;;;8.70;5.18;;;;;;;;;;6184307;23;20013;-90
2022/04/17 09:42:07;;;;;;;8.18;5.30;;;;;;;;;;6159746;23;20009;-91
2022/04/17 09:44:45;;;;;;;8.45;5.13;;;;;;;;;;6184164;23;20386;-91
2022/04/17 09:47:14;;;;;;;8.60;5.22;;;;;;;;;;6160139;23;20026;-90
2022/04/17 09:49:55;;;;;;;8.27;5.53;;;;;;;;;;6186312;23;20017;-92
2022/04/17 09:52:22;;;;;;;9.32;4.88;;;;;;;;;;6160532;23;20017;-90
2022/04/17 09:54:49;;;;;;;7.53;4.53;;;;;;;;;;6159339;23;20020;-91
2022/04/17 09:57:34;;;;;;;6.70;4.32;;;;;;;;;;6159906;23;20013;-90
2022/04/17 10:00:19;;;;;;;10.07;5.00;;;;;;;;;;6184556;23;20028;-90
2022/04/17 10:02:48;;;;;;;8.38;4.60;;;;;;;;;;6185031;23;20056;-92
2022/04/17 10:05:15;;;;;;;8.40;4.70;;;;;;;;;;6184192;23;20020;-89
2022/04/17 10:07:42;;;;;;;7.72;4.50;;;;;;;;;;6183943;23;20039;-91
2022/04/17 10:10:09;;;;;;;7.22;4.95;;;;;;;;;;6183962;23;20017;-89
2022/04/17 10:12:35;;;;;;;10.43;5.85;;;;;;;;;;6159598;23;20394;-91
2022/04/17 10:15:04;;;;;;;6.95;4.30;;;;;;;;;;6185018;23;20017;-91
2022/04/17 10:17:30;;;;;;;7.47;4.50;;;;;;;;;;6159436;23;20521;-90
2022/04/17 10:19:59;;;;;;;7.95;4.32;;;;;;;;;;6159195;23;20009;-90
2022/04/17 10:22:29;;;;;;;8.25;4.55;;;;;;;;;;6184463;23;20013;-91
2022/04/17 10:24:56;;;;;;;8.45;4.20;;;;;;;;;;6159805;23;20013;-91
2022/04/17 10:27:29;;;;;;;9.73;5.03;;;;;;;;;;6184827;23;20012;-91
2022/04/17 10:30:05;;;;;;;8.50;5.43;;;;;;;;;;6182256;23;20192;-91
2022/04/17 10:32:54;;;;;;;9.07;5.20;;;;;;;;;;6159976;23;20025;-91
2022/04/17 10:35:40;;;;;;;8.57;5.10;;;;;;;;;;6184901;23;20024;-91
2022/04/17 10:38:24;;;;;;;10.98;6.30;;;;;;;;;;6189180;23;20024;-91
2022/04/17 10:41:03;;;;;;;9.43;4.60;;;;;;;;;;6183519;23;20493;-91
2022/04/17 10:43:47;;;;;;;9.15;4.95;;;;;;;;;;6160297;23;20256;-91
2022/04/17 10:46:16;;;;;;;8.35;4.60;;;;;;;;;;6186782;23;20017;-92
2022/04/17 10:48:46;;;;;;;7.35;4.47;;;;;;;;;;6187474;23;20513;-91
2022/04/17 10:51:33;;;;;;;10.45;4.60;;;;;;;;;;6162960;23;20075;-91
2022/04/17 10:54:02;;;;;;;9.43;5.30;;;;;;;;;;6184618;23;20458;-91
2022/04/17 10:56:28;;;;;;;8.50;4.40;;;;;;;;;;6184820;23;20017;-90
2022/04/17 10:58:56;;;;;;;7.38;4.60;;;;;;;;;;6182073;23;20442;-90
2022/04/17 11:01:41;;;;;;;7.75;4.70;;;;;;;;;;6184239;23;20513;-91
2022/04/17 11:04:17;;;;;;;7.72;4.53;;;;;;;;;;6185202;23;20075;-91
2022/04/17 11:06:43;;;;;;;8.57;4.88;;;;;;;;;;6184151;23;20462;-90
2022/04/17 11:09:20;;;;;;;6.85;3.80;;;;;;;;;;6184153;23;20017;-90
2022/04/17 11:11:48;;;;;;;9.10;4.30;;;;;;;;;;6184707;23;20342;-91
2022/04/17 11:14:18;;;;;;;7.60;3.53;;;;;;;;;;6184506;23;20512;-90
2022/04/17 11:16:57;;;;;;;6.93;4.03;;;;;;;;;;6160000;23;20096;-92
2022/04/17 11:19:24;;;;;;;8.63;4.85;;;;;;;;;;6184236;23;20016;-92
2022/04/17 11:21:51;;;;;;;6.93;4.30;;;;;;;;;;6183735;23;20013;-90
2022/04/17 11:24:17;;;;;;;8.88;5.00;;;;;;;;;;6158590;23;20067;-90
2022/04/17 11:26:53;;;;;;;6.93;4.32;;;;;;;;;;6158869;23;20013;-90
2022/04/17 11:29:34;;;;;;;7.68;4.30;;;;;;;;;;6183331;23;20048;-89
2022/04/17 11:32:01;;;;;;;7.97;4.53;;;;;;;;;;6182847;23;20032;-90
2022/04/17 11:34:41;;;;;;;9.05;5.07;;;;;;;;;;6182747;23;20431;-89
2022/04/17 11:37:07;;;;;;;8.43;4.78;;;;;;;;;;6185084;23;20328;-91
2022/04/17 11:39:34;;;;;;;7.30;4.35;;;;;;;;;;6184401;23;20013;-89
2022/04/17 11:42:00;;;;;;;8.82;4.75;;;;;;;;;;6160413;23;20016;-90
2022/04/17 11:44:26;;;;;;;8.48;4.78;;;;;;;;;;6157255;23;20517;-89
2022/04/17 11:46:52;;;;;;;8.80;4.60;;;;;;;;;;6160171;23;20013;-89
2022/04/17 11:49:19;;;;;;;10.23;5.43;;;;;;;;;;6183494;23;20017;-91
2022/04/17 11:51:45;;;;;;;8.25;4.88;;;;;;;;;;6184882;23;20055;-90
2022/04/17 11:54:32;;;;;;;8.35;5.15;;;;;;;;;;6182429;23;20024;-89
2022/04/17 11:56:58;;;;;;;8.27;5.40;;;;;;;;;;6160002;23;20014;-90
2022/04/17 11:59:24;;;;;;;8.43;4.88;;;;;;;;;;6157080;23;20035;-90
2022/04/17 12:02:09;;;;;;;7.85;5.10;;;;;;;;;;6160041;23;20013;-89
2022/04/17 12:04:36;;;;;;;9.68;4.57;;;;;;;;;;6183401;23;20045;-89
2022/04/17 12:07:02;;;;;;;8.20;5.32;;;;;;;;;;6160219;23;20017;-89
2022/04/17 12:09:28;;;;;;;11.23;5.65;;;;;;;;;;6183168;23;20020;-89
2022/04/17 12:11:54;;;;;;;10.32;5.22;;;;;;;;;;6159895;23;20024;-91
2022/04/17 12:14:27;;;;;;;9.00;5.32;;;;;;;;;;6183430;23;20024;-90
2022/04/17 12:16:53;;;;;;;12.43;5.50;;;;;;;;;;6159708;23;20020;-90
2022/04/17 12:19:19;;;;;;;9.30;5.28;;;;;;;;;;6183459;23;20013;-89
2022/04/17 12:21:45;;;;;;;9.13;5.22;;;;;;;;;;6160097;23;20080;-89
2022/04/17 12:24:11;;;;;;;9.32;5.10;;;;;;;;;;6184584;23;20067;-90
2022/04/17 12:26:37;;;;;;;8.40;5.40;;;;;;;;;;6184772;23;20028;-89
2022/04/17 12:29:05;;;;;;;9.93;5.32;;;;;;;;;;6159531;23;20017;-89
2022/04/17 12:31:31;;;;;;;11.02;6.22;;;;;;;;;;6159545;23;20021;-90
2022/04/17 12:34:12;;;;;;;8.05;5.28;;;;;;;;;;6184637;23;20151;-89
2022/04/17 12:36:42;;;;;;;8.80;5.43;;;;;;;;;;6185019;23;20018;-89
2022/04/17 12:39:08;;;;;;;10.77;4.70;;;;;;;;;;6159672;23;20021;-89
2022/04/17 12:41:46;;;;;;;8.27;4.78;;;;;;;;;;6184484;23;20455;-89
2022/04/17 12:44:12;;;;;;;11.05;5.28;;;;;;;;;;6159394;23;20382;-89
2022/04/17 12:46:47;;;;;;;8.88;5.32;;;;;;;;;;6184336;23;20446;-90
2022/04/17 12:49:15;;;;;;;7.07;4.63;;;;;;;;;;6183127;23;20013;-91
2022/04/17 12:51:53;;;;;;;9.57;4.22;;;;;;;;;;6184374;23;20016;-89
2022/04/17 12:54:19;;;;;;;8.18;4.90;;;;;;;;;;6181289;23;20017;-90
2022/04/17 12:56:47;;;;;;;7.35;4.30;;;;;;;;;;6184216;23;20017;-90
2022/04/17 12:59:13;;;;;;;9.77;6.18;;;;;;;;;;6158436;23;20323;-89
2022/04/17 13:01:47;;;;;;;9.80;5.40;;;;;;;;;;6159318;23;20097;-89
2022/04/17 13:04:21;;;;;;;7.90;4.47;;;;;;;;;;6159337;23;20016;-89
2022/04/17 13:06:50;;;;;;;7.95;4.70;;;;;;;;;;6159744;23;20021;-89
2022/04/17 13:09:18;;;;;;;7.75;4.30;;;;;;;;;;6159159;23;20023;-89
2022/04/17 13:11:45;;;;;;;8.90;4.53;;;;;;;;;;6184317;23;20092;-89
2022/04/17 13:14:11;;;;;;;8.52;4.53;;;;;;;;;;6182812;23;20056;-90
2022/04/17 13:16:48;;;;;;;8.82;4.07;;;;;;;;;;6184080;23;20096;-90
2022/04/17 13:19:14;;;;;;;7.13;3.95;;;;;;;;;;6186692;23;20462;-91
2022/04/17 13:21:40;;;;;;;10.05;4.38;;;;;;;;;;6164942;23;20414;-91
2022/04/17 13:24:06;;;;;;;7.50;4.40;;;;;;;;;;6189139;23;20013;-90
2022/04/17 13:26:31;;;;;;;8.32;4.63;;;;;;;;;;6191418;23;20457;-90
2022/04/17 13:28:57;;;;;;;8.05;4.50;;;;;;;;;;6190701;23;20008;-89
2022/04/17 13:31:23;;;;;;;7.15;4.50;;;;;;;;;;6189413;23;20053;-90
2022/04/17 13:33:49;;;;;;;7.55;4.68;;;;;;;;;;6188563;23;20031;-90
2022/04/17 13:36:15;;;;;;;7.10;4.80;;;;;;;;;;6190191;23;20096;-91
2022/04/17 13:38:41;;;;;;;9.65;5.45;;;;;;;;;;6190255;23;20013;-89
2022/04/17 13:41:07;;;;;;;9.05;5.25;;;;;;;;;;6162154;23;20032;-90
2022/04/17 13:43:34;;;;;;;10.27;5.10;;;;;;;;;;6184879;23;20009;-89
2022/04/17 13:46:00;;;;;;;9.30;5.15;;;;;;;;;;6185070;23;20021;-90
2022/04/17 13:48:26;;;;;;;9.35;5.70;;;;;;;;;;6159478;23;20056;-90
2022/04/17 13:50:52;;;;;;;9.25;5.60;;;;;;;;;;6183757;23;20017;-90
2022/04/17 13:53:18;;;;;;;8.38;4.72;;;;;;;;;;6159619;23;20013;-90
2022/04/17 13:55:44;;;;;;;8.25;5.03;;;;;;;;;;6183264;23;20017;-90
2022/04/17 13:58:10;;;;;;;9.25;5.38;;;;;;;;;;6158926;23;20020;-89
2022/04/17 14:00:36;;;;;;;8.18;4.65;;;;;;;;;;6182548;23;20316;-90
2022/04/17 14:03:03;;;;;;;9.13;5.07;;;;;;;;;;6183780;23;20028;-90
2022/04/17 14:05:29;;;;;;;9.10;4.57;;;;;;;;;;6155563;23;20016;-89
2022/04/17 14:07:57;;;;;;;7.18;4.47;;;;;;;;;;6183851;23;20055;-89
2022/04/17 14:10:23;;;;;;;5.65;3.30;;;;;;;;;;6180907;23;20123;-89
2022/04/17 14:12:49;;;;;;;7.45;3.55;;;;;;;;;;6185382;23;20341;-89
2022/04/17 14:15:15;;;;;;;10.27;3.65;;;;;;;;;;6183258;23;20041;-89
2022/04/17 14:17:41;;;;;;;8.18;3.75;;;;;;;;;;6183554;23;20072;-89
2022/04/17 14:20:07;;;;;;;6.13;3.80;;;;;;;;;;6158512;23;20005;-89
2022/04/17 14:22:34;;;;;;;10.93;3.70;;;;;;;;;;6183510;23;20013;-89
2022/04/17 14:25:01;;;;;;;7.35;3.13;;;;;;;;;;6156605;23;20016;-88
2022/04/17 14:27:27;;;;;;;6.00;3.00;;;;;;;;;;6158654;23;20017;-89
2022/04/17 14:29:54;;;;;;;7.03;3.13;;;;;;;;;;6182642;23;20043;-89
2022/04/17 14:32:20;;;;;;;6.63;2.92;;;;;;;;;;6158618;23;20028;-90
2022/04/17 14:34:46;;;;;;;6.03;2.90;;;;;;;;;;6182470;23;20390;-90
2022/04/17 14:37:13;;;;;;;7.05;2.83;;;;;;;;;;6183388;23;20009;-90
2022/04/17 14:39:42;;;;;;;6.90;2.90;;;;;;;;;;6182195;23;20056;-88
2022/04/17 14:42:09;;;;;;;5.68;3.03;;;;;;;;;;6158622;23;20016;-90
2022/04/17 14:44:36;;;;;;;6.15;2.40;;;;;;;;;;6182697;23;20176;-90
2022/04/17 14:47:02;;;;;;;5.47;2.63;;;;;;;;;;6183999;23;20076;-90